sensor_id;sensor_type;location;lat;lon;timestamp;P1;durP1;ratioP1;P2;durP2;ratioP2
62151;SDS011;48139;47.474;19.034;2022-08-18T03:59:22;12.75;;;9.05;;
62151;SDS011;48139;47.474;19.034;2022-08-18T04:02:27;13.90;;;8.32;;
62151;SDS011;48139;47.474;19.034;2022-08-18T04:05:30;12.23;;;7.68;;
62151;SDS011;48139;47.474;19.034;2022-08-18T04:08:33;15.73;;;8.27;;
62151;SDS011;48139;47.474;19.034;2022-08-18T04:11:36;11.25;;;7.50;;
62151;SDS011;48139;47.474;19.034;2022-08-18T04:14:40;18.12;;;9.63;;
62151;SDS011;48139;47.474;19.034;2022-08-18T04:17:44;14.52;;;8.32;;
62151;SDS011;48139;47.474;19.034;2022-08-18T04:21:08;10.50;;;6.70;;
62151;SDS011;48139;47.474;19.034;2022-08-18T04:24:12;11.43;;;7.93;;
62151;SDS011;48139;47.474;19.034;2022-08-18T04:30:18;10.93;;;7.43;;
62151;SDS011;48139;47.474;19.034;2022-08-18T04:33:21;12.20;;;7.97;;
62151;SDS011;48139;47.474;19.034;2022-08-18T04:36:24;12.98;;;8.20;;
62151;SDS011;48139;47.474;19.034;2022-08-18T04:39:27;10.65;;;7.93;;
62151;SDS011;48139;47.474;19.034;2022-08-18T04:42:31;12.32;;;9.43;;
62151;SDS011;48139;47.474;19.034;2022-08-18T04:45:34;12.77;;;8.50;;
62151;SDS011;48139;47.474;19.034;2022-08-18T04:48:38;12.57;;;9.18;;
62151;SDS011;48139;47.474;19.034;2022-08-18T04:51:43;12.35;;;8.27;;
62151;SDS011;48139;47.474;19.034;2022-08-18T04:55:27;12.37;;;7.53;;
62151;SDS011;48139;47.474;19.034;2022-08-18T04:58:30;14.35;;;7.60;;
62151;SDS011;48139;47.474;19.034;2022-08-18T05:01:39;11.82;;;9.18;;
62151;SDS011;48139;47.474;19.034;2022-08-18T05:04:47;16.40;;;8.77;;
62151;SDS011;48139;47.474;19.034;2022-08-18T05:07:50;15.57;;;9.27;;
62151;SDS011;48139;47.474;19.034;2022-08-18T05:10:53;14.57;;;10.07;;
62151;SDS011;48139;47.474;19.034;2022-08-18T05:14:06;11.77;;;8.55;;
62151;SDS011;48139;47.474;19.034;2022-08-18T05:17:10;12.68;;;9.35;;
62151;SDS011;48139;47.474;19.034;2022-08-18T05:20:13;19.33;;;9.82;;
62151;SDS011;48139;47.474;19.034;2022-08-18T05:23:19;12.90;;;8.93;;
62151;SDS011;48139;47.474;19.034;2022-08-18T05:26:24;10.98;;;7.93;;
62151;SDS011;48139;47.474;19.034;2022-08-18T05:29:28;12.63;;;8.18;;
62151;SDS011;48139;47.474;19.034;2022-08-18T05:32:47;14.65;;;8.23;;
62151;SDS011;48139;47.474;19.034;2022-08-18T05:35:59;12.05;;;7.65;;
62151;SDS011;48139;47.474;19.034;2022-08-18T05:43:02;13.43;;;8.25;;
62151;SDS011;48139;47.474;19.034;2022-08-18T05:46:06;12.32;;;7.87;;
62151;SDS011;48139;47.474;19.034;2022-08-18T05:49:12;13.50;;;7.85;;
62151;SDS011;48139;47.474;19.034;2022-08-18T05:52:26;13.27;;;8.23;;
62151;SDS011;48139;47.474;19.034;2022-08-18T05:55:34;13.90;;;8.63;;
62151;SDS011;48139;47.474;19.034;2022-08-18T05:58:58;13.48;;;7.50;;
62151;SDS011;48139;47.474;19.034;2022-08-18T06:02:04;11.52;;;7.65;;
62151;SDS011;48139;47.474;19.034;2022-08-18T06:05:31;11.52;;;8.77;;
62151;SDS011;48139;47.474;19.034;2022-08-18T06:08:37;15.57;;;8.35;;
62151;SDS011;48139;47.474;19.034;2022-08-18T06:11:52;16.35;;;8.77;;
62151;SDS011;48139;47.474;19.034;2022-08-18T06:15:14;15.07;;;7.85;;
62151;SDS011;48139;47.474;19.034;2022-08-18T06:22:11;13.73;;;8.88;;
62151;SDS011;48139;47.474;19.034;2022-08-18T06:25:17;16.90;;;8.00;;
62151;SDS011;48139;47.474;19.034;2022-08-18T06:28:22;12.68;;;7.95;;
62151;SDS011;48139;47.474;19.034;2022-08-18T06:34:43;15.30;;;9.18;;
62151;SDS011;48139;47.474;19.034;2022-08-18T06:41:41;14.68;;;8.52;;
62151;SDS011;48139;47.474;19.034;2022-08-18T06:44:52;13.85;;;8.48;;
62151;SDS011;48139;47.474;19.034;2022-08-18T06:48:17;11.77;;;7.95;;
62151;SDS011;48139;47.474;19.034;2022-08-18T06:51:22;14.35;;;8.18;;
62151;SDS011;48139;47.474;19.034;2022-08-18T06:54:29;14.57;;;8.23;;
62151;SDS011;48139;47.474;19.034;2022-08-18T06:57:36;15.25;;;8.55;;
62151;SDS011;48139;47.474;19.034;2022-08-18T07:00:55;13.18;;;8.27;;
62151;SDS011;48139;47.474;19.034;2022-08-18T07:04:01;13.85;;;9.35;;
62151;SDS011;48139;47.474;19.034;2022-08-18T07:07:11;17.15;;;8.75;;
62151;SDS011;48139;47.474;19.034;2022-08-18T07:10:48;15.00;;;8.68;;
62151;SDS011;48139;47.474;19.034;2022-08-18T07:13:54;11.20;;;8.02;;
62151;SDS011;48139;47.474;19.034;2022-08-18T07:17:22;12.05;;;7.25;;
62151;SDS011;48139;47.474;19.034;2022-08-18T07:20:46;15.93;;;7.72;;
62151;SDS011;48139;47.474;19.034;2022-08-18T07:24:05;11.40;;;7.47;;
62151;SDS011;48139;47.474;19.034;2022-08-18T07:37:22;14.73;;;8.25;;
62151;SDS011;48139;47.474;19.034;2022-08-18T07:40:38;14.50;;;7.80;;
62151;SDS011;48139;47.474;19.034;2022-08-18T07:47:06;11.70;;;7.07;;
62151;SDS011;48139;47.474;19.034;2022-08-18T07:50:20;12.05;;;7.25;;
62151;SDS011;48139;47.474;19.034;2022-08-18T07:57:07;14.73;;;7.72;;
62151;SDS011;48139;47.474;19.034;2022-08-18T08:00:22;11.82;;;7.93;;
62151;SDS011;48139;47.474;19.034;2022-08-18T08:03:57;10.02;;;6.60;;
62151;SDS011;48139;47.474;19.034;2022-08-18T08:07:14;12.23;;;8.10;;
62151;SDS011;48139;47.474;19.034;2022-08-18T08:10:29;12.23;;;7.07;;
62151;SDS011;48139;47.474;19.034;2022-08-18T08:13:40;13.23;;;7.53;;
62151;SDS011;48139;47.474;19.034;2022-08-18T08:20:42;15.90;;;7.60;;
62151;SDS011;48139;47.474;19.034;2022-08-18T08:23:49;20.45;;;7.43;;
62151;SDS011;48139;47.474;19.034;2022-08-18T08:27:01;11.57;;;7.50;;
62151;SDS011;48139;47.474;19.034;2022-08-18T08:30:16;12.40;;;7.00;;
62151;SDS011;48139;47.474;19.034;2022-08-18T08:33:23;13.65;;;6.85;;
62151;SDS011;48139;47.474;19.034;2022-08-18T08:36:38;13.88;;;7.37;;
62151;SDS011;48139;47.474;19.034;2022-08-18T08:39:47;9.98;;;7.53;;
62151;SDS011;48139;47.474;19.034;2022-08-18T08:43:06;14.30;;;7.85;;
62151;SDS011;48139;47.474;19.034;2022-08-18T08:46:18;11.50;;;7.68;;
62151;SDS011;48139;47.474;19.034;2022-08-18T08:53:06;9.98;;;7.55;;
62151;SDS011;48139;47.474;19.034;2022-08-18T08:56:27;12.88;;;7.87;;
62151;SDS011;48139;47.474;19.034;2022-08-18T08:59:31;20.35;;;8.88;;
62151;SDS011;48139;47.474;19.034;2022-08-18T09:02:52;15.35;;;8.45;;
62151;SDS011;48139;47.474;19.034;2022-08-18T09:06:09;12.73;;;6.80;;
62151;SDS011;48139;47.474;19.034;2022-08-18T09:09:20;13.07;;;8.20;;
62151;SDS011;48139;47.474;19.034;2022-08-18T09:16:09;13.05;;;7.87;;
62151;SDS011;48139;47.474;19.034;2022-08-18T09:29:53;11.10;;;6.43;;
62151;SDS011;48139;47.474;19.034;2022-08-18T09:33:12;14.50;;;8.70;;
62151;SDS011;48139;47.474;19.034;2022-08-18T09:43:06;11.20;;;7.87;;
62151;SDS011;48139;47.474;19.034;2022-08-18T09:49:51;11.45;;;6.35;;
62151;SDS011;48139;47.474;19.034;2022-08-18T09:52:57;21.20;;;8.82;;
62151;SDS011;48139;47.474;19.034;2022-08-18T09:56:17;15.60;;;7.62;;
62151;SDS011;48139;47.474;19.034;2022-08-18T09:59:57;11.95;;;5.90;;
62151;SDS011;48139;47.474;19.034;2022-08-18T10:03:41;9.80;;;7.35;;
62151;SDS011;48139;47.474;19.034;2022-08-18T10:06:45;9.18;;;6.50;;
62151;SDS011;48139;47.474;19.034;2022-08-18T10:14:02;13.18;;;6.57;;
62151;SDS011;48139;47.474;19.034;2022-08-18T10:21:01;19.37;;;7.73;;
62151;SDS011;48139;47.474;19.034;2022-08-18T10:24:15;12.95;;;6.55;;
62151;SDS011;48139;47.474;19.034;2022-08-18T10:30:46;9.65;;;6.12;;
62151;SDS011;48139;47.474;19.034;2022-08-18T10:34:11;9.02;;;5.20;;
62151;SDS011;48139;47.474;19.034;2022-08-18T10:37:36;8.63;;;5.32;;
62151;SDS011;48139;47.474;19.034;2022-08-18T10:40:51;19.37;;;7.25;;
62151;SDS011;48139;47.474;19.034;2022-08-18T10:44:00;9.85;;;5.72;;
62151;SDS011;48139;47.474;19.034;2022-08-18T10:47:26;9.65;;;5.43;;
62151;SDS011;48139;47.474;19.034;2022-08-18T11:01:26;7.45;;;5.05;;
62151;SDS011;48139;47.474;19.034;2022-08-18T11:04:43;7.30;;;4.45;;
62151;SDS011;48139;47.474;19.034;2022-08-18T11:08:02;9.07;;;5.05;;
62151;SDS011;48139;47.474;19.034;2022-08-18T11:11:32;8.05;;;5.43;;
62151;SDS011;48139;47.474;19.034;2022-08-18T11:14:57;6.75;;;4.97;;
62151;SDS011;48139;47.474;19.034;2022-08-18T11:21:47;7.15;;;4.72;;
62151;SDS011;48139;47.474;19.034;2022-08-18T11:24:53;7.60;;;4.35;;
62151;SDS011;48139;47.474;19.034;2022-08-18T11:27:56;6.82;;;4.45;;
62151;SDS011;48139;47.474;19.034;2022-08-18T11:31:00;10.43;;;5.50;;
62151;SDS011;48139;47.474;19.034;2022-08-18T11:34:11;13.45;;;5.37;;
62151;SDS011;48139;47.474;19.034;2022-08-18T11:37:42;6.50;;;4.55;;
62151;SDS011;48139;47.474;19.034;2022-08-18T11:40:52;7.37;;;4.70;;
62151;SDS011;48139;47.474;19.034;2022-08-18T11:44:30;9.85;;;4.72;;
62151;SDS011;48139;47.474;19.034;2022-08-18T11:47:35;10.18;;;5.30;;
62151;SDS011;48139;47.474;19.034;2022-08-18T11:54:42;8.45;;;4.55;;
62151;SDS011;48139;47.474;19.034;2022-08-18T12:00:54;11.18;;;4.82;;
62151;SDS011;48139;47.474;19.034;2022-08-18T12:07:32;8.23;;;4.20;;
62151;SDS011;48139;47.474;19.034;2022-08-18T12:10:36;6.57;;;4.12;;
62151;SDS011;48139;47.474;19.034;2022-08-18T12:13:40;12.30;;;4.18;;
62151;SDS011;48139;47.474;19.034;2022-08-18T12:16:47;6.45;;;3.72;;
62151;SDS011;48139;47.474;19.034;2022-08-18T12:20:11;8.25;;;4.80;;
62151;SDS011;48139;47.474;19.034;2022-08-18T12:23:17;10.95;;;4.53;;
62151;SDS011;48139;47.474;19.034;2022-08-18T12:26:22;7.93;;;3.42;;
62151;SDS011;48139;47.474;19.034;2022-08-18T12:29:44;6.62;;;4.07;;
62151;SDS011;48139;47.474;19.034;2022-08-18T12:32:48;6.70;;;4.03;;
62151;SDS011;48139;47.474;19.034;2022-08-18T12:36:06;8.85;;;5.00;;
62151;SDS011;48139;47.474;19.034;2022-08-18T12:39:14;7.55;;;3.90;;
62151;SDS011;48139;47.474;19.034;2022-08-18T12:42:17;6.75;;;3.87;;
62151;SDS011;48139;47.474;19.034;2022-08-18T12:45:21;9.02;;;4.12;;
62151;SDS011;48139;47.474;19.034;2022-08-18T12:48:26;7.05;;;3.85;;
62151;SDS011;48139;47.474;19.034;2022-08-18T12:51:31;10.23;;;5.07;;
62151;SDS011;48139;47.474;19.034;2022-08-18T12:54:34;7.72;;;4.05;;
62151;SDS011;48139;47.474;19.034;2022-08-18T12:57:36;7.80;;;3.97;;
62151;SDS011;48139;47.474;19.034;2022-08-18T13:00:59;7.05;;;3.87;;
62151;SDS011;48139;47.474;19.034;2022-08-18T13:04:05;6.70;;;3.95;;
62151;SDS011;48139;47.474;19.034;2022-08-18T13:07:28;7.87;;;4.15;;
62151;SDS011;48139;47.474;19.034;2022-08-18T13:10:32;9.80;;;4.93;;
62151;SDS011;48139;47.474;19.034;2022-08-18T13:13:48;7.35;;;3.95;;
62151;SDS011;48139;47.474;19.034;2022-08-18T13:16:57;6.80;;;4.12;;
62151;SDS011;48139;47.474;19.034;2022-08-18T13:20:01;9.90;;;4.45;;
62151;SDS011;48139;47.474;19.034;2022-08-18T13:23:09;7.30;;;3.55;;
62151;SDS011;48139;47.474;19.034;2022-08-18T13:26:15;6.82;;;4.40;;
62151;SDS011;48139;47.474;19.034;2022-08-18T13:29:32;11.70;;;4.68;;
62151;SDS011;48139;47.474;19.034;2022-08-18T13:32:35;7.70;;;3.70;;
62151;SDS011;48139;47.474;19.034;2022-08-18T13:35:57;8.07;;;3.62;;
62151;SDS011;48139;47.474;19.034;2022-08-18T13:39:00;11.30;;;4.75;;
62151;SDS011;48139;47.474;19.034;2022-08-18T13:42:02;9.45;;;4.80;;
62151;SDS011;48139;47.474;19.034;2022-08-18T13:45:26;10.90;;;4.43;;
62151;SDS011;48139;47.474;19.034;2022-08-18T13:48:29;7.32;;;4.12;;
62151;SDS011;48139;47.474;19.034;2022-08-18T13:51:33;9.15;;;4.20;;
62151;SDS011;48139;47.474;19.034;2022-08-18T13:54:35;10.52;;;4.60;;
62151;SDS011;48139;47.474;19.034;2022-08-18T13:57:39;7.72;;;5.05;;
62151;SDS011;48139;47.474;19.034;2022-08-18T14:00:52;10.32;;;5.32;;
62151;SDS011;48139;47.474;19.034;2022-08-18T14:04:19;6.95;;;3.65;;
62151;SDS011;48139;47.474;19.034;2022-08-18T14:07:23;10.10;;;4.55;;
62151;SDS011;48139;47.474;19.034;2022-08-18T14:10:30;7.55;;;4.07;;
62151;SDS011;48139;47.474;19.034;2022-08-18T14:13:35;8.00;;;4.97;;
62151;SDS011;48139;47.474;19.034;2022-08-18T14:16:45;7.80;;;4.22;;
62151;SDS011;48139;47.474;19.034;2022-08-18T14:19:49;7.62;;;4.53;;
62151;SDS011;48139;47.474;19.034;2022-08-18T14:23:23;9.10;;;3.85;;
62151;SDS011;48139;47.474;19.034;2022-08-18T14:26:54;11.77;;;4.78;;
62151;SDS011;48139;47.474;19.034;2022-08-18T14:29:57;8.52;;;4.32;;
62151;SDS011;48139;47.474;19.034;2022-08-18T14:33:02;9.80;;;4.37;;
62151;SDS011;48139;47.474;19.034;2022-08-18T14:36:13;13.57;;;5.62;;
62151;SDS011;48139;47.474;19.034;2022-08-18T14:39:16;9.60;;;4.22;;
62151;SDS011;48139;47.474;19.034;2022-08-18T14:42:19;8.40;;;4.22;;
62151;SDS011;48139;47.474;19.034;2022-08-18T14:45:43;10.57;;;4.15;;
62151;SDS011;48139;47.474;19.034;2022-08-18T14:48:50;11.00;;;4.60;;
62151;SDS011;48139;47.474;19.034;2022-08-18T14:51:52;7.18;;;4.05;;
62151;SDS011;48139;47.474;19.034;2022-08-18T14:54:55;8.90;;;4.35;;
62151;SDS011;48139;47.474;19.034;2022-08-18T14:57:58;17.80;;;4.22;;
62151;SDS011;48139;47.474;19.034;2022-08-18T15:01:02;7.28;;;3.25;;
62151;SDS011;48139;47.474;19.034;2022-08-18T15:04:11;6.45;;;3.05;;
62151;SDS011;48139;47.474;19.034;2022-08-18T15:07:20;10.32;;;3.30;;
62151;SDS011;48139;47.474;19.034;2022-08-18T15:10:25;7.72;;;3.47;;
62151;SDS011;48139;47.474;19.034;2022-08-18T15:13:29;11.32;;;3.87;;
62151;SDS011;48139;47.474;19.034;2022-08-18T15:16:33;10.00;;;3.87;;
62151;SDS011;48139;47.474;19.034;2022-08-18T15:19:40;11.48;;;3.60;;
62151;SDS011;48139;47.474;19.034;2022-08-18T15:23:02;8.35;;;3.12;;
62151;SDS011;48139;47.474;19.034;2022-08-18T15:26:29;6.53;;;3.05;;
62151;SDS011;48139;47.474;19.034;2022-08-18T15:29:35;6.30;;;3.47;;
62151;SDS011;48139;47.474;19.034;2022-08-18T15:32:44;5.18;;;2.97;;
62151;SDS011;48139;47.474;19.034;2022-08-18T15:35:50;8.20;;;3.40;;
62151;SDS011;48139;47.474;19.034;2022-08-18T15:38:55;8.18;;;3.55;;
62151;SDS011;48139;47.474;19.034;2022-08-18T15:41:57;5.25;;;2.90;;
62151;SDS011;48139;47.474;19.034;2022-08-18T15:45:05;5.80;;;2.95;;
